Time;durP1;ratioP1;P1;durP2;ratioP2;P2;SDS_P1;SDS_P2;PMS_P1;PMS_P2;Temp;Humidity;BMP_temperature;BMP_pressure;BME280_temperature;BME280_humidity;BME280_pressure;Samples;Min_cycle;Max_cycle;Signal;HPM_P1;HPM_P2
2022/11/23 00:00:17;;;;;;;0.93;0.70;;;13.20;62.30;;;;;;5088709;28;45464;-86
2022/11/23 00:02:44;;;;;;;1.17;0.63;;;13.20;62.30;;;;;;5087799;28;46593;-86
2022/11/23 00:05:11;;;;;;;0.82;0.70;;;13.20;62.30;;;;;;5088614;28;45292;-87
2022/11/23 00:07:38;;;;;;;1.48;0.60;;;13.20;62.30;;;;;;5088305;27;45297;-88
2022/11/23 00:10:07;;;;;;;1.20;0.68;;;13.20;62.30;;;;;;5088768;28;45460;-87
2022/11/23 00:12:34;;;;;;;1.98;0.82;;;13.20;62.30;;;;;;5088146;28;46386;-87
2022/11/23 00:15:01;;;;;;;0.65;0.60;;;13.10;62.20;;;;;;5088148;28;45249;-87
2022/11/23 00:17:28;;;;;;;0.90;0.60;;;13.10;62.20;;;;;;5088265;28;45203;-87
2022/11/23 00:19:55;;;;;;;0.93;0.60;;;13.10;62.20;;;;;;5088431;28;45298;-87
2022/11/23 00:22:21;;;;;;;3.22;0.65;;;13.10;62.20;;;;;;5088144;28;45660;-87
2022/11/23 00:24:49;;;;;;;0.57;0.52;;;13.10;62.20;;;;;;5088140;28;45298;-88
2022/11/23 00:27:17;;;;;;;1.85;0.60;;;13.10;62.20;;;;;;5088211;28;45315;-87
2022/11/23 00:29:44;;;;;;;0.50;0.50;;;13.10;62.30;;;;;;5086211;28;45273;-87
2022/11/23 00:32:11;;;;;;;0.95;0.60;;;13.10;62.20;;;;;;5067532;28;45977;-87
2022/11/23 00:34:37;;;;;;;1.25;0.70;;;13.10;62.30;;;;;;5067643;28;45251;-87
2022/11/23 00:37:04;;;;;;;0.40;0.40;;;13.10;62.20;;;;;;5067837;28;45297;-87
2022/11/23 00:39:31;;;;;;;2.28;0.55;;;13.10;62.30;;;;;;5067678;28;45610;-87
2022/11/23 00:41:58;;;;;;;1.13;0.65;;;13.10;62.20;;;;;;5067354;28;45250;-87
2022/11/23 00:44:26;;;;;;;0.57;0.57;;;13.10;63.00;;;;;;5067590;28;45274;-87
2022/11/23 00:46:53;;;;;;;1.80;0.70;;;13.10;62.20;;;;;;5079046;28;45356;-86
2022/11/23 00:49:21;;;;;;;1.65;0.65;;;13.10;62.20;;;;;;5087131;28;45360;-87
2022/11/23 00:51:47;;;;;;;0.50;0.50;;;13.10;62.20;;;;;;5087488;28;46345;-87
2022/11/23 00:54:14;;;;;;;1.02;0.70;;;13.10;62.20;;;;;;5087859;28;45260;-88
2022/11/23 00:56:41;;;;;;;0.70;0.70;;;13.00;62.20;;;;;;5087874;28;45175;-87
2022/11/23 00:59:09;;;;;;;1.08;0.80;;;13.00;62.20;;;;;;5087804;28;45291;-87
2022/11/23 01:01:37;;;;;;;0.35;0.35;;;13.00;62.10;;;;;;5087486;28;45605;-87
2022/11/23 01:04:07;;;;;;;0.70;0.50;;;13.00;62.20;;;;;;5087522;28;45253;-87
2022/11/23 01:06:36;;;;;;;0.50;0.50;;;13.00;62.20;;;;;;5087647;28;45311;-87
2022/11/23 01:09:05;;;;;;;0.73;0.70;;;13.00;62.20;;;;;;5087683;28;45225;-87
2022/11/23 01:11:32;;;;;;;0.70;0.55;;;13.00;62.20;;;;;;5087399;28;45506;-88
2022/11/23 01:13:59;;;;;;;1.08;0.63;;;13.00;62.20;;;;;;5087272;28;45252;-87
2022/11/23 01:16:27;;;;;;;0.47;0.45;;;13.00;62.20;;;;;;5087724;28;45364;-87
2022/11/23 01:18:55;;;;;;;0.45;0.45;;;13.00;62.20;;;;;;5087405;28;45240;-87
2022/11/23 01:21:22;;;;;;;1.33;0.50;;;13.00;62.20;;;;;;5086523;28;46595;-87
2022/11/23 01:23:49;;;;;;;2.08;0.75;;;13.00;62.10;;;;;;5087382;28;45292;-87
2022/11/23 01:26:16;;;;;;;0.50;0.47;;;13.00;62.20;;;;;;5087601;28;45332;-87
2022/11/23 01:28:43;;;;;;;1.02;0.60;;;13.00;62.20;;;;;;5087359;28;45526;-87
2022/11/23 01:31:11;;;;;;;0.50;0.38;;;13.00;62.20;;;;;;5087124;28;47415;-87
2022/11/23 01:33:38;;;;;;;0.98;0.55;;;13.00;62.10;;;;;;5087025;28;45273;-87
2022/11/23 01:36:11;;;;;;;0.40;0.40;;;13.00;62.10;;;;;;5087277;28;45250;-85
2022/11/23 01:38:38;;;;;;;1.38;0.50;;;13.00;62.10;;;;;;5086811;28;45282;-85
2022/11/23 01:41:05;;;;;;;1.40;0.80;;;13.00;62.10;;;;;;5086317;28;45425;-87
2022/11/23 01:43:32;;;;;;;0.50;0.50;;;13.00;62.10;;;;;;5087396;28;45307;-87
2022/11/23 01:45:59;;;;;;;1.20;0.60;;;13.00;62.10;;;;;;5087083;28;45202;-87
2022/11/23 01:48:30;;;;;;;1.45;1.05;;;13.00;62.10;;;;;;5087548;28;45383;-87
2022/11/23 01:50:58;;;;;;;0.93;0.55;;;13.00;62.10;;;;;;5086762;28;47482;-87
2022/11/23 01:53:26;;;;;;;1.00;0.40;;;13.00;62.10;;;;;;5087240;28;45312;-88
2022/11/23 01:55:53;;;;;;;0.40;0.40;;;13.00;62.10;;;;;;5087105;28;45392;-87
2022/11/23 01:58:21;;;;;;;0.75;0.40;;;13.00;62.10;;;;;;5087055;28;45541;-87
2022/11/23 02:00:48;;;;;;;0.90;0.55;;;13.00;62.10;;;;;;5086659;28;45343;-87
2022/11/23 02:03:15;;;;;;;0.70;0.65;;;13.00;62.10;;;;;;5086968;28;45200;-87
2022/11/23 02:05:44;;;;;;;0.82;0.70;;;13.00;62.10;;;;;;5086922;28;45203;-87
2022/11/23 02:08:11;;;;;;;0.98;0.63;;;13.00;62.10;;;;;;5086970;28;45284;-86
2022/11/23 02:10:39;;;;;;;1.13;0.43;;;13.00;62.10;;;;;;5086366;28;45735;-87
2022/11/23 02:13:07;;;;;;;1.55;0.70;;;12.90;62.10;;;;;;5087005;28;45248;-88
2022/11/23 02:15:34;;;;;;;0.80;0.60;;;12.90;62.80;;;;;;5086950;28;45308;-88
2022/11/23 02:18:02;;;;;;;0.73;0.50;;;12.90;62.00;;;;;;5086860;28;45614;-87
2022/11/23 02:20:29;;;;;;;0.98;0.50;;;12.90;62.10;;;;;;5086439;28;45755;-87
2022/11/23 02:23:04;;;;;;;1.10;0.73;;;12.90;62.00;;;;;;5086379;28;45346;-87
2022/11/23 02:25:34;;;;;;;0.70;0.47;;;12.90;62.00;;;;;;5086577;28;45175;-87
2022/11/23 02:28:03;;;;;;;0.50;0.50;;;13.00;62.10;;;;;;5086486;28;45512;-87
2022/11/23 02:30:30;;;;;;;0.50;0.40;;;12.90;62.00;;;;;;5086330;28;45574;-88
2022/11/23 02:32:57;;;;;;;1.08;0.50;;;12.90;62.10;;;;;;5089689;28;45246;-87
2022/11/23 02:35:24;;;;;;;1.08;0.68;;;12.90;62.10;;;;;;5090102;28;45336;-88
2022/11/23 02:37:50;;;;;;;0.52;0.52;;;12.90;62.10;;;;;;5090239;28;45484;-87
2022/11/23 02:40:28;;;;;;;1.10;0.40;;;12.90;62.20;;;;;;5089398;28;45271;-87
2022/11/23 02:42:55;;;;;;;0.40;0.40;;;12.90;62.10;;;;;;5089894;28;45301;-87
2022/11/23 02:45:28;;;;;;;0.20;0.20;;;12.90;62.10;;;;;;5089806;28;45202;-87
2022/11/23 02:47:55;;;;;;;0.65;0.52;;;12.90;62.10;;;;;;5090060;28;45201;-87
2022/11/23 02:50:22;;;;;;;0.65;0.45;;;12.90;62.00;;;;;;5089480;28;45904;-87
2022/11/23 02:52:49;;;;;;;0.65;0.30;;;12.90;62.80;;;;;;5089640;28;45456;-87
2022/11/23 02:55:16;;;;;;;0.57;0.47;;;12.90;62.00;;;;;;5089674;28;45293;-87
2022/11/23 02:57:42;;;;;;;1.00;0.60;;;12.90;62.00;;;;;;5089972;28;45438;-87
2022/11/23 03:00:11;;;;;;;0.22;0.22;;;12.90;62.00;;;;;;5089251;28;45538;-87
2022/11/23 03:02:39;;;;;;;0.55;0.55;;;12.90;62.00;;;;;;5089607;28;45252;-87
2022/11/23 03:05:06;;;;;;;0.40;0.40;;;12.90;62.00;;;;;;5089418;28;45283;-88
2022/11/23 03:07:33;;;;;;;0.60;0.50;;;12.90;62.00;;;;;;5089813;28;45313;-87
2022/11/23 03:10:00;;;;;;;1.52;0.43;;;12.90;62.10;;;;;;5088963;28;45435;-87
2022/11/23 03:12:27;;;;;;;1.35;0.32;;;12.90;62.10;;;;;;5089332;28;45232;-87
2022/11/23 03:14:54;;;;;;;0.77;0.50;;;12.90;62.00;;;;;;5089528;28;45395;-87
2022/11/23 03:17:21;;;;;;;0.80;0.43;;;12.90;62.00;;;;;;5089561;28;45281;-87
2022/11/23 03:19:49;;;;;;;0.43;0.40;;;12.90;62.00;;;;;;5088796;28;46684;-87
2022/11/23 03:22:16;;;;;;;0.88;0.50;;;12.90;62.00;;;;;;5089199;28;45277;-86
2022/11/23 03:24:43;;;;;;;0.60;0.60;;;12.90;62.00;;;;;;5088517;28;45147;-87
2022/11/23 03:27:09;;;;;;;1.40;0.32;;;12.90;62.00;;;;;;5089252;28;45250;-87
2022/11/23 03:29:36;;;;;;;0.75;0.47;;;12.90;62.00;;;;;;5088956;28;45462;-87
2022/11/23 03:32:03;;;;;;;0.40;0.40;;;12.90;61.90;;;;;;5088944;28;45291;-87
2022/11/23 03:34:30;;;;;;;0.90;0.40;;;12.90;61.90;;;;;;5089074;28;45327;-87
2022/11/23 03:36:58;;;;;;;0.52;0.52;;;12.90;61.90;;;;;;5089448;28;45227;-87
2022/11/23 03:39:25;;;;;;;1.05;0.50;;;12.90;61.90;;;;;;5088754;28;46984;-87
2022/11/23 03:41:52;;;;;;;1.20;0.50;;;12.90;61.80;;;;;;5088628;28;45298;-88
2022/11/23 03:44:19;;;;;;;0.52;0.40;;;12.90;61.90;;;;;;5088295;28;45317;-87
2022/11/23 03:46:46;;;;;;;0.35;0.35;;;12.90;61.90;;;;;;5088965;28;45522;-87
2022/11/23 03:49:12;;;;;;;0.43;0.43;;;12.90;61.80;;;;;;5088728;28;46402;-87
2022/11/23 03:51:39;;;;;;;0.90;0.52;;;12.90;61.90;;;;;;5088562;28;45388;-87
2022/11/23 03:54:08;;;;;;;1.90;0.60;;;12.90;61.80;;;;;;5088681;28;45431;-87
2022/11/23 03:56:35;;;;;;;0.52;0.40;;;12.90;61.80;;;;;;5089076;28;45300;-87
2022/11/23 03:59:02;;;;;;;0.38;0.30;;;12.90;61.80;;;;;;5088514;28;46843;-87
2022/11/23 04:01:28;;;;;;;0.50;0.50;;;12.90;61.70;;;;;;5088399;28;45300;-87
2022/11/23 04:03:55;;;;;;;0.47;0.47;;;12.90;61.70;;;;;;5088962;28;45372;-88
2022/11/23 04:06:22;;;;;;;0.43;0.43;;;12.90;61.70;;;;;;5089121;28;45280;-87
2022/11/23 04:08:49;;;;;;;1.25;0.57;;;12.90;61.70;;;;;;5087927;28;45316;-86
2022/11/23 04:11:17;;;;;;;1.02;0.50;;;12.90;62.40;;;;;;5087608;28;45184;-87
2022/11/23 04:13:44;;;;;;;0.65;0.50;;;12.90;61.70;;;;;;5088371;28;45265;-87
2022/11/23 04:16:11;;;;;;;0.40;0.40;;;12.80;61.60;;;;;;5088549;28;45523;-87
2022/11/23 04:18:38;;;;;;;0.85;0.50;;;12.80;61.60;;;;;;5088274;28;46824;-87
2022/11/23 04:21:05;;;;;;;0.98;0.60;;;12.80;61.60;;;;;;5088098;28;45301;-87
2022/11/23 04:23:32;;;;;;;1.30;0.52;;;12.80;61.60;;;;;;5088579;28;45296;-87
2022/11/23 04:25:59;;;;;;;1.10;0.38;;;12.80;61.60;;;;;;5088171;28;45462;-87
2022/11/23 04:28:27;;;;;;;0.63;0.40;;;12.80;61.60;;;;;;5087806;28;46390;-87
2022/11/23 04:30:54;;;;;;;0.90;0.35;;;12.80;61.60;;;;;;5088011;28;45395;-87
2022/11/23 04:33:21;;;;;;;1.20;0.47;;;12.80;61.50;;;;;;5088104;28;45249;-87
2022/11/23 04:35:48;;;;;;;0.82;0.40;;;12.80;61.60;;;;;;5088335;28;45134;-87
2022/11/23 04:38:15;;;;;;;1.35;0.43;;;12.80;61.60;;;;;;5087904;28;46635;-87
2022/11/23 04:40:41;;;;;;;1.15;0.55;;;12.80;61.60;;;;;;5087412;28;45308;-87
2022/11/23 04:43:09;;;;;;;0.50;0.40;;;12.80;61.60;;;;;;5087933;28;45295;-87
2022/11/23 04:45:39;;;;;;;1.75;0.52;;;12.80;61.60;;;;;;5087945;28;45459;-87
2022/11/23 04:48:06;;;;;;;1.33;0.50;;;12.70;61.60;;;;;;5087770;28;46695;-88
2022/11/23 04:50:34;;;;;;;0.85;0.50;;;12.70;61.60;;;;;;5087557;28;45374;-87
2022/11/23 04:53:01;;;;;;;1.52;0.40;;;12.70;61.60;;;;;;5087874;28;45277;-88
2022/11/23 04:55:28;;;;;;;1.88;0.35;;;12.70;61.60;;;;;;5087911;28;45332;-85
2022/11/23 04:57:54;;;;;;;1.88;0.70;;;12.70;61.60;;;;;;5086983;28;45828;-87
2022/11/23 05:00:21;;;;;;;0.43;0.43;;;12.70;61.60;;;;;;5087395;28;45319;-87
2022/11/23 05:02:50;;;;;;;0.65;0.60;;;12.70;61.60;;;;;;5087677;28;45287;-87
2022/11/23 05:05:17;;;;;;;0.93;0.50;;;12.70;61.60;;;;;;5087619;28;45213;-88
2022/11/23 05:07:44;;;;;;;2.35;0.70;;;12.70;61.60;;;;;;5087539;28;45605;-87
2022/11/23 05:10:10;;;;;;;0.43;0.28;;;12.60;61.50;;;;;;5087424;28;45310;-88
2022/11/23 05:12:37;;;;;;;0.32;0.30;;;12.60;61.60;;;;;;5087469;28;45311;-87
2022/11/23 05:15:05;;;;;;;0.85;0.40;;;12.60;61.60;;;;;;5087599;28;45276;-87
2022/11/23 05:17:32;;;;;;;0.30;0.30;;;12.60;61.60;;;;;;5087104;28;45452;-85
2022/11/23 05:20:00;;;;;;;0.38;0.38;;;12.60;61.60;;;;;;5087174;28;45486;-85
2022/11/23 05:22:27;;;;;;;0.52;0.47;;;12.60;62.30;;;;;;5087655;28;45296;-85
2022/11/23 05:24:54;;;;;;;1.33;0.65;;;12.50;61.50;;;;;;5087427;28;45228;-86
2022/11/23 05:27:21;;;;;;;1.05;0.65;;;12.50;61.50;;;;;;5086805;28;45623;-86
2022/11/23 05:29:48;;;;;;;1.30;0.60;;;12.50;61.50;;;;;;5087150;28;45290;-86
2022/11/23 05:32:15;;;;;;;2.08;0.70;;;12.50;61.50;;;;;;5087134;28;45224;-86
2022/11/23 05:34:41;;;;;;;1.95;0.50;;;12.50;61.50;;;;;;5087395;28;45414;-86
2022/11/23 05:37:10;;;;;;;0.30;0.30;;;12.50;61.50;;;;;;5087137;28;45334;-86
2022/11/23 05:39:37;;;;;;;0.60;0.50;;;12.50;61.50;;;;;;5086884;28;45256;-86
2022/11/23 05:42:04;;;;;;;0.70;0.50;;;12.50;61.50;;;;;;5086662;28;45181;-84
2022/11/23 05:44:31;;;;;;;1.52;0.63;;;12.50;61.50;;;;;;5086409;28;45300;-86
2022/11/23 05:46:57;;;;;;;0.60;0.60;;;12.40;61.50;;;;;;5086745;28;45468;-86
2022/11/23 05:49:24;;;;;;;0.50;0.22;;;12.40;61.50;;;;;;5086789;28;45307;-86
2022/11/23 05:51:51;;;;;;;1.50;0.60;;;12.40;61.40;;;;;;5086892;28;45306;-86
2022/11/23 05:54:20;;;;;;;1.48;0.52;;;12.40;61.50;;;;;;5087022;28;45175;-87
2022/11/23 05:56:46;;;;;;;0.60;0.60;;;12.40;61.40;;;;;;5086802;28;46800;-86
2022/11/23 05:59:13;;;;;;;1.20;0.60;;;12.40;61.40;;;;;;5086824;28;45376;-86
2022/11/23 06:01:40;;;;;;;2.35;0.65;;;12.40;61.50;;;;;;5086832;28;45264;-86
2022/11/23 06:04:07;;;;;;;0.50;0.50;;;12.40;61.50;;;;;;5086925;28;45578;-86
2022/11/23 06:06:34;;;;;;;1.23;0.50;;;12.40;61.40;;;;;;5088441;27;45499;-87
2022/11/23 06:09:01;;;;;;;2.72;0.60;;;12.40;61.50;;;;;;5090337;28;45351;-86
2022/11/23 06:11:30;;;;;;;2.47;0.60;;;12.40;61.50;;;;;;5090326;28;45427;-86
2022/11/23 06:13:57;;;;;;;0.43;0.43;;;12.30;61.40;;;;;;5090496;28;45400;-86
2022/11/23 06:16:23;;;;;;;0.98;0.63;;;12.30;61.30;;;;;;5090301;28;46633;-86
2022/11/23 06:18:50;;;;;;;1.00;0.50;;;12.30;61.40;;;;;;5090010;28;45352;-86
2022/11/23 06:21:17;;;;;;;1.13;0.70;;;12.30;61.40;;;;;;5090013;28;45317;-86
2022/11/23 06:23:44;;;;;;;0.80;0.60;;;12.30;61.40;;;;;;5090547;28;45421;-86
2022/11/23 06:26:11;;;;;;;0.73;0.60;;;12.30;61.40;;;;;;5089929;28;45783;-86
2022/11/23 06:28:40;;;;;;;0.85;0.47;;;12.30;61.30;;;;;;5089134;28;45285;-83
2022/11/23 06:31:07;;;;;;;1.52;0.63;;;12.30;61.40;;;;;;5089431;28;45332;-86
2022/11/23 06:33:34;;;;;;;0.90;0.47;;;12.30;61.30;;;;;;5090204;28;45292;-86
2022/11/23 06:36:02;;;;;;;0.82;0.63;;;12.20;61.30;;;;;;5089793;28;46401;-86
2022/11/23 06:38:28;;;;;;;0.70;0.70;;;12.20;61.30;;;;;;5089799;28;45251;-87
2022/11/23 06:40:57;;;;;;;3.00;0.75;;;12.20;61.40;;;;;;5089875;28;45359;-87
2022/11/23 06:43:24;;;;;;;1.13;0.60;;;12.20;61.30;;;;;;5090116;28;45229;-87
2022/11/23 06:45:53;;;;;;;0.90;0.57;;;12.20;61.40;;;;;;5089503;28;45766;-87
2022/11/23 06:48:19;;;;;;;0.87;0.60;;;12.20;61.30;;;;;;5089867;28;45226;-87
2022/11/23 06:50:46;;;;;;;1.80;0.63;;;12.20;61.20;;;;;;5089863;28;45429;-87
2022/11/23 06:53:13;;;;;;;3.28;0.70;;;12.20;61.20;;;;;;5090001;28;45514;-87
2022/11/23 06:55:41;;;;;;;0.82;0.40;;;12.20;61.20;;;;;;5089538;28;46746;-87
2022/11/23 06:58:08;;;;;;;1.50;0.65;;;12.10;61.10;;;;;;5089635;28;45274;-87
2022/11/23 07:00:35;;;;;;;0.52;0.52;;;12.10;61.20;;;;;;5089623;28;45257;-87
2022/11/23 07:03:03;;;;;;;0.82;0.50;;;12.10;61.10;;;;;;5089839;28;45292;-87
2022/11/23 07:05:30;;;;;;;2.37;0.80;;;12.10;61.10;;;;;;5089376;28;45399;-87
2022/11/23 07:07:57;;;;;;;1.67;0.70;;;12.10;61.00;;;;;;5089454;28;45253;-87
2022/11/23 07:10:25;;;;;;;0.47;0.47;;;12.10;61.00;;;;;;5089425;28;45248;-87
2022/11/23 07:12:52;;;;;;;2.50;0.80;;;12.10;61.10;;;;;;5089993;28;44790;-86
2022/11/23 07:15:19;;;;;;;3.00;0.82;;;12.10;61.00;;;;;;5089341;28;45577;-86
2022/11/23 07:17:46;;;;;;;0.90;0.82;;;12.10;61.10;;;;;;5087360;27;45731;-87
2022/11/23 07:20:14;;;;;;;2.40;0.50;;;12.10;61.00;;;;;;5088993;28;45248;-86
2022/11/23 07:22:41;;;;;;;3.40;0.80;;;12.10;61.00;;;;;;5089536;28;45284;-87
2022/11/23 07:25:08;;;;;;;0.77;0.57;;;12.10;61.70;;;;;;5089015;28;45579;-86
2022/11/23 07:27:35;;;;;;;3.60;0.75;;;12.10;60.90;;;;;;5089024;28;45352;-87
2022/11/23 07:30:02;;;;;;;1.50;0.50;;;12.00;60.90;;;;;;5089291;28;45248;-88
2022/11/23 07:32:29;;;;;;;0.60;0.60;;;12.00;61.00;;;;;;5089402;28;45577;-88
2022/11/23 07:34:56;;;;;;;2.05;0.45;;;12.00;60.90;;;;;;5089206;28;46895;-87
2022/11/23 07:37:24;;;;;;;1.17;0.73;;;12.00;60.90;;;;;;5089303;28;45312;-87
2022/11/23 07:39:52;;;;;;;1.92;0.90;;;12.00;61.00;;;;;;5089086;28;45207;-87
2022/11/23 07:42:19;;;;;;;2.13;0.85;;;12.00;61.10;;;;;;5089131;28;45194;-87
2022/11/23 07:44:46;;;;;;;3.80;0.83;;;12.00;61.00;;;;;;5088624;28;45403;-87
2022/11/23 07:47:13;;;;;;;3.45;1.00;;;12.00;61.10;;;;;;5088751;28;45337;-87
2022/11/23 07:49:40;;;;;;;1.73;0.75;;;12.00;61.10;;;;;;5088978;28;45309;-87
2022/11/23 07:52:07;;;;;;;1.10;0.80;;;12.00;61.10;;;;;;5089023;28;45253;-87
2022/11/23 07:54:35;;;;;;;1.67;0.85;;;12.00;60.90;;;;;;5088885;28;45636;-86
2022/11/23 07:57:02;;;;;;;4.00;0.80;;;12.00;61.00;;;;;;5088702;28;45310;-86
2022/11/23 07:59:29;;;;;;;1.00;0.70;;;12.00;61.10;;;;;;5088796;28;45315;-87
2022/11/23 08:01:56;;;;;;;0.95;0.60;;;12.00;61.10;;;;;;5088959;28;45382;-86
2022/11/23 08:04:22;;;;;;;2.72;1.13;;;12.00;60.90;;;;;;5087811;28;46641;-86
2022/11/23 08:06:49;;;;;;;1.42;0.70;;;12.00;60.90;;;;;;5088324;28;45174;-86
2022/11/23 08:09:16;;;;;;;1.58;0.82;;;12.00;60.90;;;;;;5088518;28;45364;-87
2022/11/23 08:11:45;;;;;;;1.67;0.70;;;11.90;60.90;;;;;;5088620;28;45253;-87
2022/11/23 08:14:12;;;;;;;1.60;0.80;;;12.00;60.80;;;;;;5088315;28;46920;-87
2022/11/23 08:16:38;;;;;;;1.60;0.85;;;12.00;60.70;;;;;;5088588;28;45256;-87
2022/11/23 08:19:05;;;;;;;2.03;0.70;;;12.00;60.60;;;;;;5088751;28;45259;-87
2022/11/23 08:21:32;;;;;;;2.90;1.02;;;12.00;60.50;;;;;;5088213;28;45450;-87
2022/11/23 08:23:59;;;;;;;3.35;0.95;;;12.00;60.50;;;;;;5087975;28;46557;-87
2022/11/23 08:26:26;;;;;;;1.37;0.67;;;12.00;60.50;;;;;;5088026;28;45285;-87
2022/11/23 08:28:56;;;;;;;0.60;0.60;;;12.00;60.40;;;;;;5087565;27;45233;-87
2022/11/23 08:31:23;;;;;;;0.60;0.60;;;12.00;60.40;;;;;;5088338;28;45371;-87
2022/11/23 08:33:49;;;;;;;2.65;0.98;;;12.00;60.30;;;;;;5088088;28;45397;-87
2022/11/23 08:36:16;;;;;;;2.23;0.70;;;12.00;60.40;;;;;;5088169;28;45331;-87
2022/11/23 08:38:43;;;;;;;3.80;0.80;;;12.00;60.40;;;;;;5088389;28;45240;-87
2022/11/23 08:41:10;;;;;;;1.20;0.70;;;12.00;60.20;;;;;;5088212;28;45463;-87
2022/11/23 08:43:37;;;;;;;1.20;0.80;;;12.00;60.30;;;;;;5088195;28;46004;-87
2022/11/23 08:46:05;;;;;;;1.97;0.70;;;12.00;60.30;;;;;;5087725;28;45395;-87
2022/11/23 08:48:32;;;;;;;2.10;0.70;;;12.00;60.20;;;;;;5088345;28;45233;-86
2022/11/23 08:51:00;;;;;;;1.90;0.77;;;12.10;60.30;;;;;;5087315;28;45506;-87
2022/11/23 08:53:26;;;;;;;1.77;0.90;;;12.10;60.20;;;;;;5087634;28;45570;-86
2022/11/23 08:55:53;;;;;;;2.37;0.60;;;12.10;60.10;;;;;;5087871;28;45340;-87
2022/11/23 08:58:20;;;;;;;2.20;0.73;;;12.10;60.10;;;;;;5087912;28;45288;-86
2022/11/23 09:00:47;;;;;;;1.65;0.70;;;12.10;60.00;;;;;;5087921;28;45298;-88
2022/11/23 09:03:16;;;;;;;1.23;0.60;;;12.10;60.00;;;;;;5087246;28;45602;-87
2022/11/23 09:05:42;;;;;;;3.42;0.80;;;12.10;60.00;;;;;;5087437;28;45411;-87
2022/11/23 09:08:09;;;;;;;3.95;0.75;;;12.10;60.00;;;;;;5087783;28;45304;-86
2022/11/23 09:10:36;;;;;;;1.13;0.63;;;12.20;60.00;;;;;;5087793;28;45252;-87
2022/11/23 09:13:03;;;;;;;3.58;0.82;;;12.20;59.90;;;;;;5087775;28;47044;-86
2022/11/23 09:15:30;;;;;;;0.80;0.80;;;12.20;60.00;;;;;;5087701;28;45127;-86
2022/11/23 09:17:57;;;;;;;1.75;1.00;;;12.20;60.00;;;;;;5087767;28;45349;-87
2022/11/23 09:20:25;;;;;;;1.23;0.90;;;12.20;59.90;;;;;;5087749;28;45495;-87
2022/11/23 09:22:52;;;;;;;1.70;1.02;;;12.20;59.80;;;;;;5087786;28;45499;-88
2022/11/23 09:25:19;;;;;;;2.92;1.20;;;12.30;60.00;;;;;;5087412;28;45259;-88
2022/11/23 09:27:46;;;;;;;1.50;0.50;;;12.30;59.80;;;;;;5087748;28;45265;-87
2022/11/23 09:30:14;;;;;;;1.73;0.88;;;12.30;59.80;;;;;;5087832;28;45403;-88
2022/11/23 09:32:41;;;;;;;2.40;0.80;;;12.30;59.80;;;;;;5087386;28;46549;-87
2022/11/23 09:35:08;;;;;;;1.70;1.00;;;12.40;59.80;;;;;;5087626;28;45252;-87
2022/11/23 09:37:36;;;;;;;1.27;0.93;;;12.40;59.70;;;;;;5087285;28;45253;-87
2022/11/23 09:40:04;;;;;;;1.97;0.90;;;12.40;59.70;;;;;;5086917;28;45278;-87
2022/11/23 09:42:41;;;;;;;2.75;0.90;;;12.40;59.70;;;;;;5090538;28;46413;-87
2022/11/23 09:45:14;;;;;;;2.90;0.90;;;12.40;59.60;;;;;;5090794;28;45240;-87
2022/11/23 09:47:50;;;;;;;2.17;0.70;;;12.50;59.60;;;;;;5090766;28;45383;-88
2022/11/23 09:50:21;;;;;;;1.88;0.77;;;12.50;59.50;;;;;;5091109;28;45476;-87
2022/11/23 09:52:50;;;;;;;1.08;0.70;;;12.60;59.50;;;;;;5090321;28;45602;-87
2022/11/23 09:55:19;;;;;;;2.25;0.80;;;12.60;59.40;;;;;;5090764;28;45316;-87
2022/11/23 09:57:47;;;;;;;1.00;0.93;;;12.60;59.40;;;;;;5090707;28;45257;-88
2022/11/23 10:00:17;;;;;;;2.00;0.95;;;12.70;59.30;;;;;;5090781;28;45286;-88
2022/11/23 10:02:44;;;;;;;1.83;0.88;;;12.70;59.30;;;;;;5090632;28;46808;-88
2022/11/23 10:05:12;;;;;;;1.92;0.88;;;12.70;59.20;;;;;;5090257;28;45193;-87
2022/11/23 10:07:44;;;;;;;2.15;1.13;;;12.80;59.20;;;;;;5090490;28;45307;-87
2022/11/23 10:10:25;;;;;;;0.98;0.75;;;12.80;59.20;;;;;;5090823;28;45628;-87
2022/11/23 10:12:54;;;;;;;0.98;0.80;;;12.90;59.10;;;;;;5090491;28;47387;-87
2022/11/23 10:15:23;;;;;;;0.80;0.73;;;12.90;59.00;;;;;;5090355;28;45181;-87
2022/11/23 10:18:04;;;;;;;1.55;0.77;;;12.90;58.90;;;;;;5090444;28;45288;-87
2022/11/23 10:20:42;;;;;;;1.65;0.68;;;13.00;58.80;;;;;;5090306;28;45251;-88
2022/11/23 10:23:14;;;;;;;1.13;0.80;;;13.00;58.80;;;;;;5090217;28;46503;-88
2022/11/23 10:25:45;;;;;;;2.22;0.70;;;13.10;58.70;;;;;;5090601;28;45240;-88
2022/11/23 10:28:12;;;;;;;1.05;0.73;;;13.10;58.70;;;;;;5090364;28;45410;-88
2022/11/23 10:30:39;;;;;;;1.67;0.90;;;13.10;58.70;;;;;;5090441;28;45233;-88
2022/11/23 10:33:18;;;;;;;0.68;0.60;;;13.20;58.60;;;;;;5090257;28;45506;-88
2022/11/23 10:35:45;;;;;;;0.88;0.80;;;13.30;58.50;;;;;;5090226;28;45343;-89
2022/11/23 10:38:12;;;;;;;1.42;0.98;;;13.30;58.30;;;;;;5090429;28;45406;-89
2022/11/23 10:40:39;;;;;;;2.35;0.88;;;13.40;58.30;;;;;;5090318;28;45242;-89
2022/11/23 10:43:12;;;;;;;1.00;0.65;;;13.40;58.10;;;;;;5089951;28;46371;-88
2022/11/23 10:45:39;;;;;;;0.82;0.70;;;13.50;58.10;;;;;;5090083;28;45237;-89
2022/11/23 10:48:06;;;;;;;0.93;0.55;;;13.60;58.00;;;;;;5090165;28;45136;-88
2022/11/23 10:50:36;;;;;;;2.58;0.88;;;13.60;57.90;;;;;;5090026;28;45428;-88
2022/11/23 10:53:20;;;;;;;2.20;0.82;;;13.60;57.80;;;;;;5089681;27;45531;-88
2022/11/23 10:55:47;;;;;;;1.40;0.90;;;13.70;57.60;;;;;;5089874;28;45292;-88
2022/11/23 10:58:25;;;;;;;0.90;0.80;;;13.80;57.70;;;;;;5090125;28;45288;-88
2022/11/23 11:00:59;;;;;;;0.68;0.68;;;13.80;57.50;;;;;;5090209;28;45541;-88
2022/11/23 11:03:26;;;;;;;0.93;0.60;;;13.90;57.50;;;;;;5089566;28;45232;-88
2022/11/23 11:05:53;;;;;;;2.42;0.68;;;13.90;57.30;;;;;;5090218;28;45343;-89
2022/11/23 11:08:21;;;;;;;0.88;0.70;;;14.00;57.30;;;;;;5089789;28;45261;-88
2022/11/23 11:10:49;;;;;;;1.38;0.90;;;14.10;57.10;;;;;;5089157;28;45426;-88
2022/11/23 11:13:25;;;;;;;0.60;0.50;;;14.10;57.00;;;;;;5089741;28;46668;-88
2022/11/23 11:15:56;;;;;;;1.48;0.60;;;14.20;57.00;;;;;;5089538;28;45757;-89
2022/11/23 11:18:25;;;;;;;2.50;0.80;;;14.20;56.90;;;;;;5089580;28;45244;-88
2022/11/23 11:20:57;;;;;;;1.17;0.65;;;14.30;57.40;;;;;;5089662;28;45523;-88
2022/11/23 11:23:23;;;;;;;2.83;0.75;;;14.40;56.80;;;;;;5089183;28;45209;-88
2022/11/23 11:25:51;;;;;;;1.23;0.80;;;14.40;56.70;;;;;;5089353;28;45268;-88
2022/11/23 11:28:24;;;;;;;0.73;0.65;;;14.40;57.20;;;;;;5089387;28;45411;-87
2022/11/23 11:30:56;;;;;;;1.02;0.70;;;14.50;56.30;;;;;;5089514;28;45188;-88
2022/11/23 11:33:24;;;;;;;2.33;0.70;;;14.50;56.70;;;;;;5089038;28;45519;-88
2022/11/23 11:35:52;;;;;;;1.38;0.70;;;14.60;56.20;;;;;;5089282;28;45328;-87
2022/11/23 11:38:22;;;;;;;1.83;1.15;;;14.60;56.10;;;;;;5089576;28;45294;-88
2022/11/23 11:40:50;;;;;;;0.65;0.65;;;14.70;56.20;;;;;;5089697;28;45249;-88
2022/11/23 11:43:20;;;;;;;1.92;0.75;;;14.70;56.30;;;;;;5088692;28;47767;-88
2022/11/23 11:45:50;;;;;;;1.05;0.68;;;14.80;56.30;;;;;;5089038;28;45273;-88
2022/11/23 11:48:18;;;;;;;0.70;0.70;;;14.80;56.30;;;;;;5083572;28;45499;-89
2022/11/23 11:50:50;;;;;;;1.42;0.70;;;14.90;56.90;;;;;;5069168;28;45352;-88
2022/11/23 11:53:18;;;;;;;1.98;0.80;;;14.90;56.50;;;;;;5068932;28;46399;-90
2022/11/23 11:55:49;;;;;;;1.45;1.05;;;15.00;56.30;;;;;;5069532;28;45289;-89
2022/11/23 11:58:16;;;;;;;1.02;0.80;;;15.00;56.00;;;;;;5068952;28;45181;-89
2022/11/23 12:00:43;;;;;;;0.88;0.80;;;15.10;56.00;;;;;;5068994;28;45463;-88
2022/11/23 12:03:18;;;;;;;0.70;0.70;;;15.00;56.10;;;;;;5079174;28;46402;-89
2022/11/23 12:05:47;;;;;;;2.80;1.20;;;15.10;56.20;;;;;;5088221;28;45293;-88
2022/11/23 12:08:17;;;;;;;2.30;0.85;;;15.10;55.80;;;;;;5073661;28;45270;-88
2022/11/23 12:10:46;;;;;;;2.30;1.30;;;15.20;56.00;;;;;;5068718;28;45377;-88
2022/11/23 12:13:15;;;;;;;2.38;1.08;;;15.20;56.00;;;;;;5069739;28;45498;-88
2022/11/23 12:15:45;;;;;;;1.15;0.68;;;15.30;56.50;;;;;;5087960;28;45201;-88
2022/11/23 12:18:23;;;;;;;5.85;1.20;;;15.30;56.00;;;;;;5087702;28;45455;-87
2022/11/23 12:20:54;;;;;;;4.72;0.80;;;15.30;55.80;;;;;;5088615;28;45410;-86
2022/11/23 12:23:27;;;;;;;7.07;2.17;;;15.40;55.80;;;;;;5086184;28;45730;-91
2022/11/23 12:26:02;;;;;;;5.85;1.20;;;15.40;55.80;;;;;;5087775;28;45300;-88
2022/11/23 12:28:41;;;;;;;10.50;1.00;;;15.40;55.80;;;;;;5082300;27;45248;-89
2022/11/23 12:31:11;;;;;;;10.48;1.40;;;15.40;55.70;;;;;;5088263;28;45268;-89
2022/11/23 12:34:04;;;;;;;6.78;1.52;;;15.40;55.60;;;;;;5085468;28;46459;-89
2022/11/23 12:36:39;;;;;;;7.63;1.40;;;15.50;55.30;;;;;;5068363;28;45245;-90
2022/11/23 12:39:11;;;;;;;1.90;0.90;;;15.40;55.30;;;;;;5069072;28;45258;-88
2022/11/23 12:41:40;;;;;;;8.13;1.00;;;15.30;55.50;;;;;;5068484;28;45387;-89
2022/11/23 12:44:40;;;;;;;7.03;1.40;;;15.20;55.90;;;;;;5067921;28;45482;-89
2022/11/23 12:47:10;;;;;;;4.07;1.02;;;15.10;55.90;;;;;;5081395;28;45230;-90
2022/11/23 12:49:40;;;;;;;3.05;0.85;;;15.10;56.20;;;;;;5088577;28;45215;-89
2022/11/23 12:52:17;;;;;;;5.32;1.30;;;15.00;56.40;;;;;;5088649;28;45590;-88